McGregor, Minnesota
Current Conditions -  °F | °C
As of 6:45 PM on Friday 24 Oct 2014 (Local Time) from KHZX Reporting Station
Clear Clear  
Wind Chill: 59°   Ceiling: Unl
Heat Index: 59°   Visibility: 10mi
Dew Point: 46°   Wind: 6mph
Humidity: 63%   Direction: 210°SSW
Pressure: 29.79"   Gusts: NA
Location:  46.61°N, 93.31°W
Report Text: KHZX 242345Z AUTO 21005KT 10SM CLR 15/08 A2979 RMK AO2
Loading
Personal Weather Stations






























Interactive Weather Map
Tropical Storm Tracking
New forecast layout! Learn more

10-Day Weather Forecast

Advertisements
Track Severe Weather on mobile